createdAt,value
2023-05-01T06:21:16.591Z,7.66
2023-05-01T06:31:16.692Z,7.79
2023-05-01T06:41:16.652Z,8.29
2023-05-01T06:51:16.736Z,9.15
2023-05-01T07:01:16.605Z,9.00
2023-05-01T07:11:16.692Z,9.29
2023-05-01T07:21:16.692Z,9.98
2023-05-01T07:31:16.684Z,10.13
2023-05-01T07:41:16.768Z,11.00
2023-05-01T07:51:16.687Z,11.33
2023-05-01T08:01:16.818Z,11.78
2023-05-01T08:11:16.699Z,11.96
2023-05-01T08:21:16.690Z,12.63
2023-05-01T08:31:16.861Z,12.79
2023-05-01T08:41:16.847Z,12.62
2023-05-01T08:51:17.031Z,13.53
2023-05-01T09:01:17.243Z,13.98
2023-05-01T09:11:17.111Z,14.34
2023-05-01T09:21:17.200Z,15.05
2023-05-01T09:31:17.155Z,14.66
2023-05-01T09:41:17.197Z,14.94
2023-05-01T09:51:18.169Z,14.88
2023-05-01T10:01:17.173Z,14.54
2023-05-01T10:11:17.219Z,14.86
2023-05-01T10:21:17.287Z,15.52
2023-05-01T10:31:17.238Z,16.53
2023-05-01T10:41:17.218Z,16.46
2023-05-01T10:51:17.157Z,17.67
2023-05-01T11:01:17.335Z,17.28
2023-05-01T11:11:17.349Z,17.54
2023-05-01T11:21:17.157Z,18.26
2023-05-01T11:31:17.344Z,18.56
2023-05-01T11:41:19.264Z,18.94
2023-05-01T11:51:17.124Z,18.87
2023-05-01T12:01:17.129Z,20.47
2023-05-01T12:11:17.219Z,19.74
2023-05-01T12:21:18.162Z,20.09
2023-05-01T12:31:17.209Z,19.79
2023-05-01T12:41:17.125Z,19.21
2023-05-01T12:51:17.325Z,18.49
2023-05-01T13:01:17.196Z,19.08
2023-05-01T13:11:17.227Z,20.12
2023-05-01T13:21:17.298Z,19.92
2023-05-01T13:31:17.600Z,18.45
2023-05-01T13:41:17.560Z,19.37
2023-05-01T13:51:17.629Z,20.21
2023-05-01T14:01:17.570Z,19.34
2023-05-01T14:11:17.779Z,20.58
2023-05-01T14:21:17.645Z,20.69
2023-05-01T14:31:17.693Z,20.03
2023-05-01T14:41:17.720Z,19.70
2023-05-01T14:51:17.676Z,20.68
2023-05-01T15:01:17.897Z,20.08
2023-05-01T15:11:17.580Z,20.79
2023-05-01T15:21:17.781Z,19.19
2023-05-01T15:31:17.724Z,19.64
2023-05-01T15:41:19.199Z,19.64
2023-05-01T15:51:18.038Z,20.07
2023-05-01T16:01:18.110Z,19.38
2023-05-01T16:11:17.998Z,19.35
2023-05-01T16:21:19.752Z,19.55
2023-05-01T16:31:27.070Z,19.69
2023-05-01T16:41:17.992Z,19.42
2023-05-01T16:51:17.905Z,19.81
2023-05-01T17:01:18.067Z,19.35
2023-05-01T17:11:17.988Z,19.01
2023-05-01T17:21:18.011Z,18.56
2023-05-01T17:31:20.431Z,18.45
2023-05-01T17:41:18.083Z,17.83
2023-05-01T17:51:18.011Z,17.46
2023-05-01T18:01:18.031Z,17.06
2023-05-01T18:11:18.015Z,17.01
2023-05-01T18:21:18.000Z,16.86
2023-05-01T18:31:17.939Z,16.57
2023-05-01T18:41:17.955Z,16.49
2023-05-01T18:51:18.162Z,15.73
2023-05-01T19:01:17.967Z,15.16
2023-05-01T19:11:18.256Z,14.93
2023-05-01T19:21:18.298Z,14.59
